sensor_id;sensor_type;location;lat;lon;timestamp;P1;durP1;ratioP1;P2;durP2;ratioP2
76574;SDS011;65439;50.948;6.988;2024-02-15T00:00:19;9.00;;;3.77;;
76574;SDS011;65439;50.948;6.988;2024-02-15T00:02:45;7.43;;;4.63;;
76574;SDS011;65439;50.948;6.988;2024-02-15T00:05:13;6.23;;;3.47;;
76574;SDS011;65439;50.948;6.988;2024-02-15T00:07:39;6.63;;;4.18;;
76574;SDS011;65439;50.948;6.988;2024-02-15T00:10:05;11.53;;;4.47;;
76574;SDS011;65439;50.948;6.988;2024-02-15T00:12:30;5.07;;;4.40;;
76574;SDS011;65439;50.948;6.988;2024-02-15T00:14:55;6.17;;;4.20;;
76574;SDS011;65439;50.948;6.988;2024-02-15T00:17:23;6.90;;;4.18;;
76574;SDS011;65439;50.948;6.988;2024-02-15T00:19:48;5.33;;;4.60;;
76574;SDS011;65439;50.948;6.988;2024-02-15T00:22:13;7.05;;;4.50;;
76574;SDS011;65439;50.948;6.988;2024-02-15T00:24:38;6.47;;;3.83;;
76574;SDS011;65439;50.948;6.988;2024-02-15T00:27:04;8.23;;;4.13;;
76574;SDS011;65439;50.948;6.988;2024-02-15T00:29:29;7.75;;;4.32;;
76574;SDS011;65439;50.948;6.988;2024-02-15T00:31:54;7.40;;;3.57;;
76574;SDS011;65439;50.948;6.988;2024-02-15T00:34:20;6.43;;;3.78;;
76574;SDS011;65439;50.948;6.988;2024-02-15T00:36:45;5.10;;;3.83;;
76574;SDS011;65439;50.948;6.988;2024-02-15T00:39:11;4.63;;;3.87;;
76574;SDS011;65439;50.948;6.988;2024-02-15T00:41:36;7.38;;;3.78;;
76574;SDS011;65439;50.948;6.988;2024-02-15T00:44:02;6.65;;;3.80;;
76574;SDS011;65439;50.948;6.988;2024-02-15T00:46:27;6.03;;;4.57;;
76574;SDS011;65439;50.948;6.988;2024-02-15T00:48:54;7.45;;;4.63;;
76574;SDS011;65439;50.948;6.988;2024-02-15T00:51:19;8.13;;;3.83;;
76574;SDS011;65439;50.948;6.988;2024-02-15T00:53:44;6.90;;;4.28;;
76574;SDS011;65439;50.948;6.988;2024-02-15T00:56:09;5.82;;;4.18;;
76574;SDS011;65439;50.948;6.988;2024-02-15T00:58:34;4.53;;;3.63;;
76574;SDS011;65439;50.948;6.988;2024-02-15T01:00:59;9.27;;;5.03;;
76574;SDS011;65439;50.948;6.988;2024-02-15T01:03:24;6.47;;;3.88;;
76574;SDS011;65439;50.948;6.988;2024-02-15T01:05:50;5.60;;;3.70;;
76574;SDS011;65439;50.948;6.988;2024-02-15T01:08:15;5.50;;;4.28;;
76574;SDS011;65439;50.948;6.988;2024-02-15T01:10:41;5.38;;;3.38;;
76574;SDS011;65439;50.948;6.988;2024-02-15T01:13:06;9.60;;;4.87;;
76574;SDS011;65439;50.948;6.988;2024-02-15T01:15:31;8.50;;;3.77;;
76574;SDS011;65439;50.948;6.988;2024-02-15T01:17:56;8.80;;;4.27;;
76574;SDS011;65439;50.948;6.988;2024-02-15T01:20:21;6.63;;;4.30;;
76574;SDS011;65439;50.948;6.988;2024-02-15T01:22:47;8.30;;;4.60;;
76574;SDS011;65439;50.948;6.988;2024-02-15T01:25:12;5.97;;;3.97;;
76574;SDS011;65439;50.948;6.988;2024-02-15T01:27:38;7.87;;;5.07;;
76574;SDS011;65439;50.948;6.988;2024-02-15T01:30:03;4.95;;;3.80;;
76574;SDS011;65439;50.948;6.988;2024-02-15T01:32:29;7.35;;;4.07;;
76574;SDS011;65439;50.948;6.988;2024-02-15T01:34:54;6.47;;;3.97;;
76574;SDS011;65439;50.948;6.988;2024-02-15T01:37:23;4.93;;;3.13;;
76574;SDS011;65439;50.948;6.988;2024-02-15T01:39:48;6.68;;;4.38;;
76574;SDS011;65439;50.948;6.988;2024-02-15T01:42:14;4.47;;;3.67;;
76574;SDS011;65439;50.948;6.988;2024-02-15T01:44:42;5.03;;;3.47;;
76574;SDS011;65439;50.948;6.988;2024-02-15T01:47:09;4.30;;;3.60;;
76574;SDS011;65439;50.948;6.988;2024-02-15T01:49:35;8.27;;;3.38;;
76574;SDS011;65439;50.948;6.988;2024-02-15T01:52:00;6.93;;;3.50;;
76574;SDS011;65439;50.948;6.988;2024-02-15T01:54:26;7.32;;;3.58;;
76574;SDS011;65439;50.948;6.988;2024-02-15T01:56:51;6.22;;;3.47;;
76574;SDS011;65439;50.948;6.988;2024-02-15T01:59:17;6.87;;;3.60;;
76574;SDS011;65439;50.948;6.988;2024-02-15T02:01:42;4.93;;;3.40;;
76574;SDS011;65439;50.948;6.988;2024-02-15T02:04:08;7.57;;;3.80;;
76574;SDS011;65439;50.948;6.988;2024-02-15T02:06:34;8.27;;;4.63;;
76574;SDS011;65439;50.948;6.988;2024-02-15T02:08:59;8.17;;;4.50;;
76574;SDS011;65439;50.948;6.988;2024-02-15T02:11:24;11.87;;;4.73;;
76574;SDS011;65439;50.948;6.988;2024-02-15T02:13:49;6.53;;;3.97;;
76574;SDS011;65439;50.948;6.988;2024-02-15T02:16:29;6.82;;;4.80;;
76574;SDS011;65439;50.948;6.988;2024-02-15T02:18:54;6.60;;;4.40;;
76574;SDS011;65439;50.948;6.988;2024-02-15T02:21:20;5.95;;;3.63;;
76574;SDS011;65439;50.948;6.988;2024-02-15T02:23:46;5.20;;;3.50;;
76574;SDS011;65439;50.948;6.988;2024-02-15T02:28:37;6.28;;;3.90;;
76574;SDS011;65439;50.948;6.988;2024-02-15T02:31:02;6.63;;;3.57;;
76574;SDS011;65439;50.948;6.988;2024-02-15T02:33:28;6.45;;;3.28;;
76574;SDS011;65439;50.948;6.988;2024-02-15T02:35:54;8.27;;;3.92;;
76574;SDS011;65439;50.948;6.988;2024-02-15T02:38:19;6.82;;;3.08;;
76574;SDS011;65439;50.948;6.988;2024-02-15T02:40:44;4.90;;;2.87;;
76574;SDS011;65439;50.948;6.988;2024-02-15T02:43:10;4.55;;;2.92;;
76574;SDS011;65439;50.948;6.988;2024-02-15T02:45:35;7.78;;;3.50;;
76574;SDS011;65439;50.948;6.988;2024-02-15T02:48:00;6.10;;;4.38;;
76574;SDS011;65439;50.948;6.988;2024-02-15T02:50:25;4.07;;;2.85;;
76574;SDS011;65439;50.948;6.988;2024-02-15T02:52:51;5.10;;;4.60;;
76574;SDS011;65439;50.948;6.988;2024-02-15T02:55:16;6.13;;;3.17;;
76574;SDS011;65439;50.948;6.988;2024-02-15T02:57:41;3.93;;;3.37;;
76574;SDS011;65439;50.948;6.988;2024-02-15T03:00:07;6.38;;;3.28;;
76574;SDS011;65439;50.948;6.988;2024-02-15T03:02:34;7.20;;;3.20;;
76574;SDS011;65439;50.948;6.988;2024-02-15T03:05:00;5.38;;;3.30;;
76574;SDS011;65439;50.948;6.988;2024-02-15T03:07:27;4.88;;;2.47;;
76574;SDS011;65439;50.948;6.988;2024-02-15T03:09:53;5.40;;;2.70;;
76574;SDS011;65439;50.948;6.988;2024-02-15T03:12:18;7.97;;;4.83;;
76574;SDS011;65439;50.948;6.988;2024-02-15T03:14:43;5.78;;;3.15;;
76574;SDS011;65439;50.948;6.988;2024-02-15T03:17:08;7.43;;;2.90;;
76574;SDS011;65439;50.948;6.988;2024-02-15T03:19:34;4.05;;;2.72;;
76574;SDS011;65439;50.948;6.988;2024-02-15T03:21:59;6.13;;;3.40;;
76574;SDS011;65439;50.948;6.988;2024-02-15T03:24:25;4.18;;;2.50;;
76574;SDS011;65439;50.948;6.988;2024-02-15T03:26:50;3.47;;;2.77;;
76574;SDS011;65439;50.948;6.988;2024-02-15T03:29:17;4.65;;;2.95;;
76574;SDS011;65439;50.948;6.988;2024-02-15T03:31:42;11.20;;;3.57;;
76574;SDS011;65439;50.948;6.988;2024-02-15T03:34:07;5.70;;;3.70;;
76574;SDS011;65439;50.948;6.988;2024-02-15T03:36:32;6.77;;;3.47;;
76574;SDS011;65439;50.948;6.988;2024-02-15T03:38:58;10.93;;;3.28;;
76574;SDS011;65439;50.948;6.988;2024-02-15T03:41:26;4.00;;;2.97;;
76574;SDS011;65439;50.948;6.988;2024-02-15T03:43:51;3.90;;;3.33;;
76574;SDS011;65439;50.948;6.988;2024-02-15T03:46:17;5.47;;;2.65;;
76574;SDS011;65439;50.948;6.988;2024-02-15T03:48:42;7.70;;;3.33;;
76574;SDS011;65439;50.948;6.988;2024-02-15T03:51:10;4.97;;;2.60;;
76574;SDS011;65439;50.948;6.988;2024-02-15T03:53:35;6.50;;;3.40;;
76574;SDS011;65439;50.948;6.988;2024-02-15T03:56:02;9.95;;;3.78;;
76574;SDS011;65439;50.948;6.988;2024-02-15T03:58:28;5.07;;;2.80;;
76574;SDS011;65439;50.948;6.988;2024-02-15T04:00:53;5.63;;;3.27;;
76574;SDS011;65439;50.948;6.988;2024-02-15T04:03:18;3.73;;;3.00;;
76574;SDS011;65439;50.948;6.988;2024-02-15T04:05:43;7.77;;;3.00;;
76574;SDS011;65439;50.948;6.988;2024-02-15T04:08:08;4.85;;;4.07;;
76574;SDS011;65439;50.948;6.988;2024-02-15T04:10:34;5.53;;;2.83;;
76574;SDS011;65439;50.948;6.988;2024-02-15T04:13:00;3.47;;;2.75;;
76574;SDS011;65439;50.948;6.988;2024-02-15T04:15:25;5.47;;;3.03;;
76574;SDS011;65439;50.948;6.988;2024-02-15T04:17:50;8.10;;;3.53;;
76574;SDS011;65439;50.948;6.988;2024-02-15T04:20:20;5.47;;;3.28;;
76574;SDS011;65439;50.948;6.988;2024-02-15T04:22:46;5.13;;;3.08;;
76574;SDS011;65439;50.948;6.988;2024-02-15T04:25:12;6.30;;;3.03;;
76574;SDS011;65439;50.948;6.988;2024-02-15T04:27:45;5.68;;;2.63;;
76574;SDS011;65439;50.948;6.988;2024-02-15T04:30:14;8.25;;;3.40;;
76574;SDS011;65439;50.948;6.988;2024-02-15T04:32:40;6.80;;;3.10;;
76574;SDS011;65439;50.948;6.988;2024-02-15T04:35:05;3.70;;;2.80;;
76574;SDS011;65439;50.948;6.988;2024-02-15T04:37:31;5.13;;;3.17;;
76574;SDS011;65439;50.948;6.988;2024-02-15T04:39:57;5.82;;;2.72;;
76574;SDS011;65439;50.948;6.988;2024-02-15T04:42:22;3.85;;;3.10;;
76574;SDS011;65439;50.948;6.988;2024-02-15T04:44:51;4.82;;;3.40;;
76574;SDS011;65439;50.948;6.988;2024-02-15T04:47:18;6.57;;;2.63;;
76574;SDS011;65439;50.948;6.988;2024-02-15T04:49:44;8.57;;;3.15;;
76574;SDS011;65439;50.948;6.988;2024-02-15T04:52:09;4.15;;;2.45;;
76574;SDS011;65439;50.948;6.988;2024-02-15T04:54:34;6.97;;;3.10;;
76574;SDS011;65439;50.948;6.988;2024-02-15T04:56:59;5.43;;;3.37;;
76574;SDS011;65439;50.948;6.988;2024-02-15T04:59:25;6.22;;;3.25;;
76574;SDS011;65439;50.948;6.988;2024-02-15T05:01:54;5.55;;;2.92;;
76574;SDS011;65439;50.948;6.988;2024-02-15T05:04:19;5.68;;;3.33;;
76574;SDS011;65439;50.948;6.988;2024-02-15T05:06:44;5.00;;;2.90;;
76574;SDS011;65439;50.948;6.988;2024-02-15T05:09:10;4.97;;;3.08;;
76574;SDS011;65439;50.948;6.988;2024-02-15T05:11:39;8.05;;;3.40;;
76574;SDS011;65439;50.948;6.988;2024-02-15T05:14:11;6.15;;;3.03;;
76574;SDS011;65439;50.948;6.988;2024-02-15T05:16:36;4.87;;;2.63;;
76574;SDS011;65439;50.948;6.988;2024-02-15T05:19:08;4.03;;;2.55;;
76574;SDS011;65439;50.948;6.988;2024-02-15T05:21:36;4.68;;;2.90;;
76574;SDS011;65439;50.948;6.988;2024-02-15T05:24:02;5.65;;;3.25;;
76574;SDS011;65439;50.948;6.988;2024-02-15T05:26:28;10.27;;;2.78;;
76574;SDS011;65439;50.948;6.988;2024-02-15T05:28:53;5.80;;;3.47;;
76574;SDS011;65439;50.948;6.988;2024-02-15T05:31:19;6.93;;;3.35;;
76574;SDS011;65439;50.948;6.988;2024-02-15T05:33:45;8.07;;;3.60;;
76574;SDS011;65439;50.948;6.988;2024-02-15T05:36:16;7.38;;;3.30;;
76574;SDS011;65439;50.948;6.988;2024-02-15T05:38:42;4.50;;;2.75;;
76574;SDS011;65439;50.948;6.988;2024-02-15T05:41:10;5.38;;;3.00;;
76574;SDS011;65439;50.948;6.988;2024-02-15T05:43:36;5.05;;;3.05;;
76574;SDS011;65439;50.948;6.988;2024-02-15T05:46:01;4.22;;;2.78;;
76574;SDS011;65439;50.948;6.988;2024-02-15T05:48:26;7.78;;;3.20;;
76574;SDS011;65439;50.948;6.988;2024-02-15T05:50:52;7.15;;;3.25;;
76574;SDS011;65439;50.948;6.988;2024-02-15T05:53:19;8.45;;;3.65;;
76574;SDS011;65439;50.948;6.988;2024-02-15T05:55:44;10.93;;;3.73;;
76574;SDS011;65439;50.948;6.988;2024-02-15T05:58:09;8.70;;;3.30;;
76574;SDS011;65439;50.948;6.988;2024-02-15T06:00:36;4.35;;;3.05;;
76574;SDS011;65439;50.948;6.988;2024-02-15T06:03:03;5.25;;;3.97;;
76574;SDS011;65439;50.948;6.988;2024-02-15T06:05:29;5.28;;;3.28;;
76574;SDS011;65439;50.948;6.988;2024-02-15T06:07:54;6.88;;;3.20;;
76574;SDS011;65439;50.948;6.988;2024-02-15T06:10:19;7.83;;;3.60;;
76574;SDS011;65439;50.948;6.988;2024-02-15T06:12:44;7.47;;;3.53;;
76574;SDS011;65439;50.948;6.988;2024-02-15T06:15:10;5.73;;;3.30;;
76574;SDS011;65439;50.948;6.988;2024-02-15T06:17:41;6.50;;;3.70;;
76574;SDS011;65439;50.948;6.988;2024-02-15T06:20:09;5.68;;;3.90;;
76574;SDS011;65439;50.948;6.988;2024-02-15T06:22:37;10.10;;;4.70;;
76574;SDS011;65439;50.948;6.988;2024-02-15T06:25:03;5.18;;;3.13;;
76574;SDS011;65439;50.948;6.988;2024-02-15T06:27:28;8.68;;;3.90;;
76574;SDS011;65439;50.948;6.988;2024-02-15T06:29:53;6.43;;;3.60;;
76574;SDS011;65439;50.948;6.988;2024-02-15T06:32:37;8.40;;;3.42;;
76574;SDS011;65439;50.948;6.988;2024-02-15T06:35:21;5.85;;;3.28;;
76574;SDS011;65439;50.948;6.988;2024-02-15T06:38:05;8.27;;;3.30;;
76574;SDS011;65439;50.948;6.988;2024-02-15T06:40:49;4.97;;;3.25;;
76574;SDS011;65439;50.948;6.988;2024-02-15T06:43:14;9.57;;;3.65;;
76574;SDS011;65439;50.948;6.988;2024-02-15T06:45:41;7.13;;;3.78;;
76574;SDS011;65439;50.948;6.988;2024-02-15T06:48:11;7.82;;;3.78;;
76574;SDS011;65439;50.948;6.988;2024-02-15T06:50:37;4.53;;;3.17;;
76574;SDS011;65439;50.948;6.988;2024-02-15T06:53:02;9.60;;;3.90;;
76574;SDS011;65439;50.948;6.988;2024-02-15T06:55:27;5.97;;;3.55;;
76574;SDS011;65439;50.948;6.988;2024-02-15T06:57:53;7.07;;;3.40;;
76574;SDS011;65439;50.948;6.988;2024-02-15T07:00:20;6.05;;;3.10;;
76574;SDS011;65439;50.948;6.988;2024-02-15T07:02:45;6.83;;;2.90;;
76574;SDS011;65439;50.948;6.988;2024-02-15T07:05:10;6.10;;;3.80;;
76574;SDS011;65439;50.948;6.988;2024-02-15T07:07:35;7.77;;;4.47;;
76574;SDS011;65439;50.948;6.988;2024-02-15T07:10:01;8.07;;;3.87;;
76574;SDS011;65439;50.948;6.988;2024-02-15T07:12:28;4.90;;;3.25;;
76574;SDS011;65439;50.948;6.988;2024-02-15T07:14:53;9.23;;;3.47;;
76574;SDS011;65439;50.948;6.988;2024-02-15T07:17:19;5.40;;;3.10;;
76574;SDS011;65439;50.948;6.988;2024-02-15T07:19:45;8.82;;;3.83;;
76574;SDS011;65439;50.948;6.988;2024-02-15T07:22:10;5.70;;;3.67;;
76574;SDS011;65439;50.948;6.988;2024-02-15T07:24:36;7.75;;;3.85;;
76574;SDS011;65439;50.948;6.988;2024-02-15T07:27:03;7.32;;;3.55;;
76574;SDS011;65439;50.948;6.988;2024-02-15T07:29:29;5.78;;;3.33;;
76574;SDS011;65439;50.948;6.988;2024-02-15T07:34:22;13.10;;;3.80;;
76574;SDS011;65439;50.948;6.988;2024-02-15T07:36:47;8.32;;;3.65;;
76574;SDS011;65439;50.948;6.988;2024-02-15T07:39:12;5.80;;;3.53;;
76574;SDS011;65439;50.948;6.988;2024-02-15T07:41:48;6.70;;;4.03;;
76574;SDS011;65439;50.948;6.988;2024-02-15T07:44:13;9.93;;;4.57;;
76574;SDS011;65439;50.948;6.988;2024-02-15T07:46:39;8.30;;;4.47;;
76574;SDS011;65439;50.948;6.988;2024-02-15T07:49:05;8.27;;;3.42;;
76574;SDS011;65439;50.948;6.988;2024-02-15T07:51:30;9.50;;;3.83;;
76574;SDS011;65439;50.948;6.988;2024-02-15T07:53:56;12.30;;;4.83;;
76574;SDS011;65439;50.948;6.988;2024-02-15T07:56:21;7.47;;;4.30;;
76574;SDS011;65439;50.948;6.988;2024-02-15T07:58:47;9.97;;;3.83;;
76574;SDS011;65439;50.948;6.988;2024-02-15T08:01:13;7.45;;;4.15;;
76574;SDS011;65439;50.948;6.988;2024-02-15T08:03:39;9.27;;;3.95;;
76574;SDS011;65439;50.948;6.988;2024-02-15T08:06:10;7.38;;;3.80;;
76574;SDS011;65439;50.948;6.988;2024-02-15T08:08:37;11.57;;;3.75;;
76574;SDS011;65439;50.948;6.988;2024-02-15T08:11:02;6.57;;;4.13;;
76574;SDS011;65439;50.948;6.988;2024-02-15T08:13:28;9.77;;;4.50;;
76574;SDS011;65439;50.948;6.988;2024-02-15T08:15:54;8.68;;;4.38;;
76574;SDS011;65439;50.948;6.988;2024-02-15T08:18:19;4.97;;;3.40;;
76574;SDS011;65439;50.948;6.988;2024-02-15T08:20:45;13.43;;;5.25;;
76574;SDS011;65439;50.948;6.988;2024-02-15T08:23:10;8.45;;;4.00;;
76574;SDS011;65439;50.948;6.988;2024-02-15T08:25:37;6.50;;;3.95;;
76574;SDS011;65439;50.948;6.988;2024-02-15T08:28:03;6.78;;;4.07;;
76574;SDS011;65439;50.948;6.988;2024-02-15T08:30:30;9.40;;;4.38;;
76574;SDS011;65439;50.948;6.988;2024-02-15T08:32:55;10.57;;;4.33;;
76574;SDS011;65439;50.948;6.988;2024-02-15T08:35:20;7.63;;;3.72;;
76574;SDS011;65439;50.948;6.988;2024-02-15T08:37:45;11.43;;;4.27;;
76574;SDS011;65439;50.948;6.988;2024-02-15T08:40:12;10.18;;;4.88;;
76574;SDS011;65439;50.948;6.988;2024-02-15T08:42:43;5.53;;;3.40;;
76574;SDS011;65439;50.948;6.988;2024-02-15T08:45:08;8.63;;;3.55;;
76574;SDS011;65439;50.948;6.988;2024-02-15T08:47:35;8.13;;;4.88;;
76574;SDS011;65439;50.948;6.988;2024-02-15T08:50:02;6.68;;;3.33;;
76574;SDS011;65439;50.948;6.988;2024-02-15T08:52:27;7.57;;;5.97;;
76574;SDS011;65439;50.948;6.988;2024-02-15T08:54:52;7.90;;;3.83;;
76574;SDS011;65439;50.948;6.988;2024-02-15T08:57:19;8.43;;;3.35;;
76574;SDS011;65439;50.948;6.988;2024-02-15T08:59:44;7.17;;;3.37;;
76574;SDS011;65439;50.948;6.988;2024-02-15T09:02:09;5.25;;;3.58;;
76574;SDS011;65439;50.948;6.988;2024-02-15T09:04:34;7.17;;;3.47;;
76574;SDS011;65439;50.948;6.988;2024-02-15T09:06:59;10.77;;;4.00;;
76574;SDS011;65439;50.948;6.988;2024-02-15T09:09:28;9.65;;;3.83;;
76574;SDS011;65439;50.948;6.988;2024-02-15T09:11:55;7.95;;;4.32;;
76574;SDS011;65439;50.948;6.988;2024-02-15T09:14:20;9.67;;;5.37;;
76574;SDS011;65439;50.948;6.988;2024-02-15T09:16:45;10.23;;;4.63;;
76574;SDS011;65439;50.948;6.988;2024-02-15T09:19:10;8.77;;;4.72;;
76574;SDS011;65439;50.948;6.988;2024-02-15T09:21:35;7.72;;;4.50;;
76574;SDS011;65439;50.948;6.988;2024-02-15T09:24:01;11.63;;;4.85;;
76574;SDS011;65439;50.948;6.988;2024-02-15T09:26:26;10.97;;;4.70;;
76574;SDS011;65439;50.948;6.988;2024-02-15T09:28:52;8.57;;;4.60;;
76574;SDS011;65439;50.948;6.988;2024-02-15T09:31:18;9.27;;;4.47;;
76574;SDS011;65439;50.948;6.988;2024-02-15T09:33:43;9.50;;;4.38;;
76574;SDS011;65439;50.948;6.988;2024-02-15T09:36:09;8.38;;;4.35;;
76574;SDS011;65439;50.948;6.988;2024-02-15T09:38:35;8.27;;;4.32;;
76574;SDS011;65439;50.948;6.988;2024-02-15T09:41:00;10.13;;;4.93;;
76574;SDS011;65439;50.948;6.988;2024-02-15T09:43:26;11.85;;;4.65;;
76574;SDS011;65439;50.948;6.988;2024-02-15T09:45:54;11.70;;;4.20;;
76574;SDS011;65439;50.948;6.988;2024-02-15T09:48:20;6.83;;;4.47;;
76574;SDS011;65439;50.948;6.988;2024-02-15T09:50:48;10.32;;;3.42;;
76574;SDS011;65439;50.948;6.988;2024-02-15T09:53:15;6.32;;;3.03;;
76574;SDS011;65439;50.948;6.988;2024-02-15T09:55:40;6.63;;;3.33;;
76574;SDS011;65439;50.948;6.988;2024-02-15T09:58:09;3.88;;;2.97;;
76574;SDS011;65439;50.948;6.988;2024-02-15T10:00:35;12.88;;;4.25;;
76574;SDS011;65439;50.948;6.988;2024-02-15T10:03:00;7.80;;;3.58;;
76574;SDS011;65439;50.948;6.988;2024-02-15T10:05:27;8.10;;;3.15;;
76574;SDS011;65439;50.948;6.988;2024-02-15T10:07:52;6.17;;;3.17;;
76574;SDS011;65439;50.948;6.988;2024-02-15T10:15:09;5.93;;;2.93;;
76574;SDS011;65439;50.948;6.988;2024-02-15T10:17:35;7.57;;;3.27;;
76574;SDS011;65439;50.948;6.988;2024-02-15T10:20:04;6.35;;;3.17;;
76574;SDS011;65439;50.948;6.988;2024-02-15T10:22:30;13.40;;;3.28;;
76574;SDS011;65439;50.948;6.988;2024-02-15T10:25:10;11.13;;;2.88;;
76574;SDS011;65439;50.948;6.988;2024-02-15T10:27:35;8.30;;;3.83;;
76574;SDS011;65439;50.948;6.988;2024-02-15T10:30:13;7.30;;;2.95;;
76574;SDS011;65439;50.948;6.988;2024-02-15T10:32:40;5.85;;;2.78;;
76574;SDS011;65439;50.948;6.988;2024-02-15T10:35:05;4.30;;;2.37;;
76574;SDS011;65439;50.948;6.988;2024-02-15T10:37:30;3.40;;;2.13;;
76574;SDS011;65439;50.948;6.988;2024-02-15T10:40:04;8.33;;;2.90;;
76574;SDS011;65439;50.948;6.988;2024-02-15T10:42:32;5.95;;;3.17;;
76574;SDS011;65439;50.948;6.988;2024-02-15T10:44:59;8.77;;;2.67;;
76574;SDS011;65439;50.948;6.988;2024-02-15T10:47:26;8.90;;;2.83;;
76574;SDS011;65439;50.948;6.988;2024-02-15T10:49:52;6.05;;;2.50;;
76574;SDS011;65439;50.948;6.988;2024-02-15T10:52:17;5.00;;;2.03;;
76574;SDS011;65439;50.948;6.988;2024-02-15T10:54:46;5.72;;;2.53;;
76574;SDS011;65439;50.948;6.988;2024-02-15T10:57:12;4.43;;;2.20;;
76574;SDS011;65439;50.948;6.988;2024-02-15T11:02:22;8.80;;;2.75;;
76574;SDS011;65439;50.948;6.988;2024-02-15T11:04:50;6.93;;;2.67;;
76574;SDS011;65439;50.948;6.988;2024-02-15T11:07:19;7.75;;;2.80;;
76574;SDS011;65439;50.948;6.988;2024-02-15T11:09:45;5.72;;;2.55;;
76574;SDS011;65439;50.948;6.988;2024-02-15T11:12:10;6.50;;;2.20;;
76574;SDS011;65439;50.948;6.988;2024-02-15T11:14:36;3.70;;;2.35;;
76574;SDS011;65439;50.948;6.988;2024-02-15T11:17:02;3.60;;;2.53;;
76574;SDS011;65439;50.948;6.988;2024-02-15T11:22:16;6.13;;;2.67;;
76574;SDS011;65439;50.948;6.988;2024-02-15T11:24:48;5.28;;;2.65;;
76574;SDS011;65439;50.948;6.988;2024-02-15T11:27:29;5.43;;;2.65;;
76574;SDS011;65439;50.948;6.988;2024-02-15T11:29:57;5.85;;;2.55;;
76574;SDS011;65439;50.948;6.988;2024-02-15T11:32:34;5.55;;;2.33;;
76574;SDS011;65439;50.948;6.988;2024-02-15T11:35:03;13.15;;;2.78;;
76574;SDS011;65439;50.948;6.988;2024-02-15T11:40:12;7.63;;;2.50;;
76574;SDS011;65439;50.948;6.988;2024-02-15T11:42:38;3.60;;;2.20;;
76574;SDS011;65439;50.948;6.988;2024-02-15T11:47:31;12.70;;;5.33;;
76574;SDS011;65439;50.948;6.988;2024-02-15T11:49:57;10.27;;;4.28;;
76574;SDS011;65439;50.948;6.988;2024-02-15T11:54:49;5.97;;;3.10;;
76574;SDS011;65439;50.948;6.988;2024-02-15T11:57:15;8.75;;;2.92;;
76574;SDS011;65439;50.948;6.988;2024-02-15T11:59:47;5.47;;;3.15;;
76574;SDS011;65439;50.948;6.988;2024-02-15T12:02:20;3.97;;;2.17;;
76574;SDS011;65439;50.948;6.988;2024-02-15T12:05:05;6.35;;;2.90;;
76574;SDS011;65439;50.948;6.988;2024-02-15T12:07:49;8.05;;;2.60;;
76574;SDS011;65439;50.948;6.988;2024-02-15T12:10:32;7.65;;;3.17;;
76574;SDS011;65439;50.948;6.988;2024-02-15T12:13:19;4.07;;;2.80;;
76574;SDS011;65439;50.948;6.988;2024-02-15T12:16:03;4.28;;;2.63;;
76574;SDS011;65439;50.948;6.988;2024-02-15T12:18:48;6.05;;;2.70;;
76574;SDS011;65439;50.948;6.988;2024-02-15T12:21:18;5.95;;;2.67;;
76574;SDS011;65439;50.948;6.988;2024-02-15T12:23:44;7.25;;;3.13;;
76574;SDS011;65439;50.948;6.988;2024-02-15T12:26:10;3.72;;;2.15;;
76574;SDS011;65439;50.948;6.988;2024-02-15T12:28:35;8.17;;;2.60;;
76574;SDS011;65439;50.948;6.988;2024-02-15T12:31:01;9.65;;;4.15;;
76574;SDS011;65439;50.948;6.988;2024-02-15T12:33:26;5.22;;;3.42;;
76574;SDS011;65439;50.948;6.988;2024-02-15T12:35:52;8.98;;;2.70;;
76574;SDS011;65439;50.948;6.988;2024-02-15T12:38:28;6.72;;;3.10;;
76574;SDS011;65439;50.948;6.988;2024-02-15T12:40:54;3.35;;;2.58;;
76574;SDS011;65439;50.948;6.988;2024-02-15T12:43:19;4.80;;;2.80;;
76574;SDS011;65439;50.948;6.988;2024-02-15T12:45:44;4.27;;;2.60;;
76574;SDS011;65439;50.948;6.988;2024-02-15T12:48:10;3.35;;;2.38;;
76574;SDS011;65439;50.948;6.988;2024-02-15T12:50:40;4.50;;;2.10;;
76574;SDS011;65439;50.948;6.988;2024-02-15T12:53:05;5.03;;;2.77;;
76574;SDS011;65439;50.948;6.988;2024-02-15T12:55:34;5.50;;;2.80;;
76574;SDS011;65439;50.948;6.988;2024-02-15T12:58:00;3.95;;;2.58;;
76574;SDS011;65439;50.948;6.988;2024-02-15T13:00:28;6.80;;;2.92;;
76574;SDS011;65439;50.948;6.988;2024-02-15T13:02:54;6.18;;;2.53;;
76574;SDS011;65439;50.948;6.988;2024-02-15T13:05:21;7.75;;;3.03;;
76574;SDS011;65439;50.948;6.988;2024-02-15T13:07:49;4.47;;;2.10;;
76574;SDS011;65439;50.948;6.988;2024-02-15T13:10:15;9.95;;;2.20;;
76574;SDS011;65439;50.948;6.988;2024-02-15T13:12:44;5.80;;;2.53;;
76574;SDS011;65439;50.948;6.988;2024-02-15T13:15:10;4.82;;;2.80;;
76574;SDS011;65439;50.948;6.988;2024-02-15T13:17:46;4.65;;;2.53;;
76574;SDS011;65439;50.948;6.988;2024-02-15T13:20:11;5.47;;;2.55;;
76574;SDS011;65439;50.948;6.988;2024-02-15T13:22:38;4.47;;;2.40;;
76574;SDS011;65439;50.948;6.988;2024-02-15T13:25:07;3.87;;;2.83;;
76574;SDS011;65439;50.948;6.988;2024-02-15T13:27:33;7.82;;;3.30;;
76574;SDS011;65439;50.948;6.988;2024-02-15T13:29:59;3.90;;;2.67;;
76574;SDS011;65439;50.948;6.988;2024-02-15T13:32:24;5.80;;;2.63;;
76574;SDS011;65439;50.948;6.988;2024-02-15T13:34:49;5.25;;;3.15;;
76574;SDS011;65439;50.948;6.988;2024-02-15T13:37:21;8.45;;;2.95;;
76574;SDS011;65439;50.948;6.988;2024-02-15T13:39:47;8.60;;;3.35;;
76574;SDS011;65439;50.948;6.988;2024-02-15T13:42:12;6.10;;;3.70;;
76574;SDS011;65439;50.948;6.988;2024-02-15T13:44:37;6.28;;;3.78;;
76574;SDS011;65439;50.948;6.988;2024-02-15T13:47:02;11.52;;;4.80;;
76574;SDS011;65439;50.948;6.988;2024-02-15T13:49:27;8.63;;;2.60;;
76574;SDS011;65439;50.948;6.988;2024-02-15T13:51:55;7.75;;;3.10;;
76574;SDS011;65439;50.948;6.988;2024-02-15T13:54:20;5.20;;;2.20;;
76574;SDS011;65439;50.948;6.988;2024-02-15T13:56:47;2.80;;;1.98;;
76574;SDS011;65439;50.948;6.988;2024-02-15T13:59:12;5.57;;;2.22;;
76574;SDS011;65439;50.948;6.988;2024-02-15T14:01:38;7.03;;;2.80;;
76574;SDS011;65439;50.948;6.988;2024-02-15T14:04:10;4.13;;;2.42;;
76574;SDS011;65439;50.948;6.988;2024-02-15T14:06:35;4.20;;;2.40;;
76574;SDS011;65439;50.948;6.988;2024-02-15T14:09:02;5.00;;;2.55;;
76574;SDS011;65439;50.948;6.988;2024-02-15T14:11:27;3.17;;;2.20;;
76574;SDS011;65439;50.948;6.988;2024-02-15T14:13:52;5.00;;;2.60;;
76574;SDS011;65439;50.948;6.988;2024-02-15T14:16:23;3.78;;;2.30;;
76574;SDS011;65439;50.948;6.988;2024-02-15T14:18:48;10.60;;;2.77;;
76574;SDS011;65439;50.948;6.988;2024-02-15T14:21:15;4.88;;;2.58;;
76574;SDS011;65439;50.948;6.988;2024-02-15T14:23:41;8.23;;;2.50;;
76574;SDS011;65439;50.948;6.988;2024-02-15T14:26:06;5.23;;;2.83;;
76574;SDS011;65439;50.948;6.988;2024-02-15T14:28:32;7.53;;;2.20;;
76574;SDS011;65439;50.948;6.988;2024-02-15T14:30:57;6.37;;;2.60;;
76574;SDS011;65439;50.948;6.988;2024-02-15T14:33:41;4.32;;;2.75;;
76574;SDS011;65439;50.948;6.988;2024-02-15T14:36:06;4.67;;;2.13;;
76574;SDS011;65439;50.948;6.988;2024-02-15T14:38:31;8.30;;;2.53;;
76574;SDS011;65439;50.948;6.988;2024-02-15T14:40:59;5.05;;;3.13;;
76574;SDS011;65439;50.948;6.988;2024-02-15T14:43:25;5.93;;;2.22;;
76574;SDS011;65439;50.948;6.988;2024-02-15T14:45:51;5.75;;;3.05;;
76574;SDS011;65439;50.948;6.988;2024-02-15T14:50:45;4.35;;;2.47;;
76574;SDS011;65439;50.948;6.988;2024-02-15T14:53:10;6.57;;;2.33;;
76574;SDS011;65439;50.948;6.988;2024-02-15T14:55:36;5.65;;;1.70;;
76574;SDS011;65439;50.948;6.988;2024-02-15T14:58:04;4.15;;;1.95;;
76574;SDS011;65439;50.948;6.988;2024-02-15T15:00:30;6.35;;;2.45;;
76574;SDS011;65439;50.948;6.988;2024-02-15T15:02:56;6.20;;;2.53;;
76574;SDS011;65439;50.948;6.988;2024-02-15T15:05:21;6.20;;;3.25;;
76574;SDS011;65439;50.948;6.988;2024-02-15T15:08:05;6.88;;;2.90;;